sensor_id;sensor_type;location;lat;lon;timestamp;P1;durP1;ratioP1;P2;durP2;ratioP2
12886;SDS011;6511;49.746;6.094;2022-10-26T00:03:40;16.38;;;10.30;;
12886;SDS011;6511;49.746;6.094;2022-10-26T00:06:08;23.40;;;11.07;;
12886;SDS011;6511;49.746;6.094;2022-10-26T00:08:35;21.35;;;10.30;;
12886;SDS011;6511;49.746;6.094;2022-10-26T00:11:01;18.98;;;10.70;;
12886;SDS011;6511;49.746;6.094;2022-10-26T00:13:27;15.82;;;11.05;;
12886;SDS011;6511;49.746;6.094;2022-10-26T00:15:53;17.48;;;11.25;;
12886;SDS011;6511;49.746;6.094;2022-10-26T00:18:19;24.25;;;10.93;;
12886;SDS011;6511;49.746;6.094;2022-10-26T00:20:45;19.70;;;10.70;;
12886;SDS011;6511;49.746;6.094;2022-10-26T00:23:10;14.95;;;10.38;;
12886;SDS011;6511;49.746;6.094;2022-10-26T00:25:36;24.25;;;10.82;;
12886;SDS011;6511;49.746;6.094;2022-10-26T00:28:02;18.77;;;10.10;;
12886;SDS011;6511;49.746;6.094;2022-10-26T00:30:28;16.75;;;10.48;;
12886;SDS011;6511;49.746;6.094;2022-10-26T00:32:53;15.90;;;9.52;;
12886;SDS011;6511;49.746;6.094;2022-10-26T00:35:19;21.80;;;9.98;;
12886;SDS011;6511;49.746;6.094;2022-10-26T00:37:45;14.48;;;9.18;;
12886;SDS011;6511;49.746;6.094;2022-10-26T00:40:11;15.60;;;9.57;;
12886;SDS011;6511;49.746;6.094;2022-10-26T00:42:36;14.60;;;9.05;;
12886;SDS011;6511;49.746;6.094;2022-10-26T00:45:35;15.75;;;9.13;;
12886;SDS011;6511;49.746;6.094;2022-10-26T00:48:05;16.02;;;9.38;;
12886;SDS011;6511;49.746;6.094;2022-10-26T00:50:40;20.23;;;9.20;;
12886;SDS011;6511;49.746;6.094;2022-10-26T00:53:08;16.35;;;9.20;;
12886;SDS011;6511;49.746;6.094;2022-10-26T00:55:39;15.57;;;9.15;;
12886;SDS011;6511;49.746;6.094;2022-10-26T00:58:12;20.00;;;8.52;;
12886;SDS011;6511;49.746;6.094;2022-10-26T01:00:40;15.93;;;9.60;;
12886;SDS011;6511;49.746;6.094;2022-10-26T01:03:07;19.42;;;8.95;;
12886;SDS011;6511;49.746;6.094;2022-10-26T01:05:39;14.60;;;9.02;;
12886;SDS011;6511;49.746;6.094;2022-10-26T01:08:06;15.00;;;8.70;;
12886;SDS011;6511;49.746;6.094;2022-10-26T01:10:36;17.63;;;9.75;;
12886;SDS011;6511;49.746;6.094;2022-10-26T01:13:03;16.83;;;9.73;;
12886;SDS011;6511;49.746;6.094;2022-10-26T01:15:55;18.75;;;9.75;;
12886;SDS011;6511;49.746;6.094;2022-10-26T01:32:15;14.60;;;9.68;;
12886;SDS011;6511;49.746;6.094;2022-10-26T01:34:52;13.32;;;8.95;;
12886;SDS011;6511;49.746;6.094;2022-10-26T01:37:27;17.65;;;9.43;;
12886;SDS011;6511;49.746;6.094;2022-10-26T01:40:01;12.80;;;8.75;;
12886;SDS011;6511;49.746;6.094;2022-10-26T01:42:34;16.85;;;9.80;;
12886;SDS011;6511;49.746;6.094;2022-10-26T01:45:06;19.50;;;9.95;;
12886;SDS011;6511;49.746;6.094;2022-10-26T01:47:34;17.23;;;10.10;;
12886;SDS011;6511;49.746;6.094;2022-10-26T01:50:02;20.55;;;10.07;;
12886;SDS011;6511;49.746;6.094;2022-10-26T01:52:29;17.08;;;9.82;;
12886;SDS011;6511;49.746;6.094;2022-10-26T01:55:06;16.35;;;9.10;;
12886;SDS011;6511;49.746;6.094;2022-10-26T01:57:52;18.75;;;9.88;;
12886;SDS011;6511;49.746;6.094;2022-10-26T02:00:23;16.75;;;9.60;;
12886;SDS011;6511;49.746;6.094;2022-10-26T02:16:23;13.98;;;9.45;;
12886;SDS011;6511;49.746;6.094;2022-10-26T02:18:53;16.90;;;10.13;;
12886;SDS011;6511;49.746;6.094;2022-10-26T02:21:25;18.65;;;9.70;;
12886;SDS011;6511;49.746;6.094;2022-10-26T02:23:55;17.23;;;10.43;;
12886;SDS011;6511;49.746;6.094;2022-10-26T02:26:26;20.85;;;10.02;;
12886;SDS011;6511;49.746;6.094;2022-10-26T02:28:55;19.48;;;10.15;;
12886;SDS011;6511;49.746;6.094;2022-10-26T02:31:25;15.95;;;9.93;;
12886;SDS011;6511;49.746;6.094;2022-10-26T02:33:52;21.08;;;9.75;;
12886;SDS011;6511;49.746;6.094;2022-10-26T02:36:22;20.10;;;10.20;;
12886;SDS011;6511;49.746;6.094;2022-10-26T02:38:52;22.15;;;11.32;;
12886;SDS011;6511;49.746;6.094;2022-10-26T02:41:20;21.38;;;11.15;;
12886;SDS011;6511;49.746;6.094;2022-10-26T02:43:49;20.58;;;10.65;;
12886;SDS011;6511;49.746;6.094;2022-10-26T02:46:29;17.48;;;10.55;;
12886;SDS011;6511;49.746;6.094;2022-10-26T02:48:55;21.20;;;11.93;;
12886;SDS011;6511;49.746;6.094;2022-10-26T02:51:35;22.50;;;11.82;;
12886;SDS011;6511;49.746;6.094;2022-10-26T02:54:26;18.80;;;11.65;;
12886;SDS011;6511;49.746;6.094;2022-10-26T02:57:51;21.63;;;11.85;;
12886;SDS011;6511;49.746;6.094;2022-10-26T03:00:12;20.77;;;12.23;;
12886;SDS011;6511;49.746;6.094;2022-10-26T03:02:41;20.42;;;12.73;;
12886;SDS011;6511;49.746;6.094;2022-10-26T03:05:17;27.83;;;13.15;;
12886;SDS011;6511;49.746;6.094;2022-10-26T03:07:45;22.27;;;12.02;;
12886;SDS011;6511;49.746;6.094;2022-10-26T03:10:11;23.42;;;12.85;;
12886;SDS011;6511;49.746;6.094;2022-10-26T03:12:37;21.45;;;12.82;;
12886;SDS011;6511;49.746;6.094;2022-10-26T03:15:03;27.52;;;12.80;;
12886;SDS011;6511;49.746;6.094;2022-10-26T03:17:29;23.55;;;13.10;;
12886;SDS011;6511;49.746;6.094;2022-10-26T03:19:54;29.67;;;12.93;;
12886;SDS011;6511;49.746;6.094;2022-10-26T03:22:20;21.85;;;13.20;;
12886;SDS011;6511;49.746;6.094;2022-10-26T03:24:46;22.77;;;13.57;;
12886;SDS011;6511;49.746;6.094;2022-10-26T03:27:12;26.48;;;14.60;;
12886;SDS011;6511;49.746;6.094;2022-10-26T03:29:38;28.90;;;15.02;;
12886;SDS011;6511;49.746;6.094;2022-10-26T03:32:04;26.98;;;13.73;;
12886;SDS011;6511;49.746;6.094;2022-10-26T03:34:30;23.83;;;13.27;;
12886;SDS011;6511;49.746;6.094;2022-10-26T03:36:56;25.13;;;12.60;;
12886;SDS011;6511;49.746;6.094;2022-10-26T03:39:21;22.40;;;12.80;;
12886;SDS011;6511;49.746;6.094;2022-10-26T03:41:47;21.55;;;12.63;;
12886;SDS011;6511;49.746;6.094;2022-10-26T03:44:13;18.40;;;12.13;;
12886;SDS011;6511;49.746;6.094;2022-10-26T03:46:38;25.20;;;12.20;;
12886;SDS011;6511;49.746;6.094;2022-10-26T03:49:04;24.42;;;11.48;;
12886;SDS011;6511;49.746;6.094;2022-10-26T03:51:31;18.48;;;11.13;;
12886;SDS011;6511;49.746;6.094;2022-10-26T03:53:57;21.42;;;13.40;;
12886;SDS011;6511;49.746;6.094;2022-10-26T03:56:22;18.95;;;12.07;;
12886;SDS011;6511;49.746;6.094;2022-10-26T03:58:48;19.35;;;11.90;;
12886;SDS011;6511;49.746;6.094;2022-10-26T04:01:14;24.27;;;11.82;;
12886;SDS011;6511;49.746;6.094;2022-10-26T04:03:39;23.35;;;12.27;;
12886;SDS011;6511;49.746;6.094;2022-10-26T04:06:05;21.88;;;11.82;;
12886;SDS011;6511;49.746;6.094;2022-10-26T04:08:31;22.05;;;12.13;;
12886;SDS011;6511;49.746;6.094;2022-10-26T04:10:57;22.27;;;12.10;;
12886;SDS011;6511;49.746;6.094;2022-10-26T04:13:23;19.05;;;11.20;;
12886;SDS011;6511;49.746;6.094;2022-10-26T04:15:48;25.30;;;13.90;;
12886;SDS011;6511;49.746;6.094;2022-10-26T04:18:14;28.35;;;13.65;;
12886;SDS011;6511;49.746;6.094;2022-10-26T04:20:40;20.40;;;12.23;;
12886;SDS011;6511;49.746;6.094;2022-10-26T04:23:06;22.63;;;12.85;;
12886;SDS011;6511;49.746;6.094;2022-10-26T04:25:36;20.85;;;11.57;;
12886;SDS011;6511;49.746;6.094;2022-10-26T04:28:02;21.73;;;12.75;;
12886;SDS011;6511;49.746;6.094;2022-10-26T04:30:29;23.25;;;13.15;;
12886;SDS011;6511;49.746;6.094;2022-10-26T04:32:55;22.05;;;13.07;;
12886;SDS011;6511;49.746;6.094;2022-10-26T04:35:24;21.60;;;13.05;;
12886;SDS011;6511;49.746;6.094;2022-10-26T04:37:50;21.88;;;12.23;;
12886;SDS011;6511;49.746;6.094;2022-10-26T04:40:20;24.45;;;12.25;;
12886;SDS011;6511;49.746;6.094;2022-10-26T04:42:46;25.77;;;12.57;;
12886;SDS011;6511;49.746;6.094;2022-10-26T04:45:12;28.17;;;12.02;;
12886;SDS011;6511;49.746;6.094;2022-10-26T04:47:40;21.80;;;12.13;;
12886;SDS011;6511;49.746;6.094;2022-10-26T04:50:07;28.00;;;13.50;;
12886;SDS011;6511;49.746;6.094;2022-10-26T04:52:33;21.48;;;13.07;;
12886;SDS011;6511;49.746;6.094;2022-10-26T04:55:00;24.88;;;14.63;;
12886;SDS011;6511;49.746;6.094;2022-10-26T04:57:26;26.98;;;14.23;;
12886;SDS011;6511;49.746;6.094;2022-10-26T04:59:51;29.10;;;14.93;;
12886;SDS011;6511;49.746;6.094;2022-10-26T05:02:17;22.17;;;14.68;;
12886;SDS011;6511;49.746;6.094;2022-10-26T05:04:44;26.23;;;15.05;;
12886;SDS011;6511;49.746;6.094;2022-10-26T05:07:10;28.65;;;13.88;;
12886;SDS011;6511;49.746;6.094;2022-10-26T05:09:36;21.27;;;13.65;;
12886;SDS011;6511;49.746;6.094;2022-10-26T05:12:02;20.75;;;13.10;;
12886;SDS011;6511;49.746;6.094;2022-10-26T05:14:27;25.15;;;14.30;;
12886;SDS011;6511;49.746;6.094;2022-10-26T05:16:53;22.48;;;14.05;;
12886;SDS011;6511;49.746;6.094;2022-10-26T05:19:19;24.38;;;13.88;;
12886;SDS011;6511;49.746;6.094;2022-10-26T05:21:45;24.95;;;14.57;;
12886;SDS011;6511;49.746;6.094;2022-10-26T05:24:11;22.52;;;13.18;;
12886;SDS011;6511;49.746;6.094;2022-10-26T05:26:37;22.60;;;13.73;;
12886;SDS011;6511;49.746;6.094;2022-10-26T05:29:02;27.25;;;12.98;;
12886;SDS011;6511;49.746;6.094;2022-10-26T05:31:28;24.77;;;13.27;;
12886;SDS011;6511;49.746;6.094;2022-10-26T05:33:54;23.15;;;12.32;;
12886;SDS011;6511;49.746;6.094;2022-10-26T05:36:19;27.83;;;13.93;;
12886;SDS011;6511;49.746;6.094;2022-10-26T05:38:45;24.23;;;13.32;;
12886;SDS011;6511;49.746;6.094;2022-10-26T05:41:11;22.05;;;12.40;;
12886;SDS011;6511;49.746;6.094;2022-10-26T05:43:37;25.05;;;13.10;;
12886;SDS011;6511;49.746;6.094;2022-10-26T05:46:02;25.90;;;12.40;;
12886;SDS011;6511;49.746;6.094;2022-10-26T05:48:28;22.48;;;13.25;;
12886;SDS011;6511;49.746;6.094;2022-10-26T05:50:57;22.60;;;12.55;;
12886;SDS011;6511;49.746;6.094;2022-10-26T05:53:24;26.25;;;12.93;;
12886;SDS011;6511;49.746;6.094;2022-10-26T05:55:50;26.88;;;14.20;;
12886;SDS011;6511;49.746;6.094;2022-10-26T05:58:16;24.02;;;12.98;;
12886;SDS011;6511;49.746;6.094;2022-10-26T06:00:55;28.52;;;13.65;;
12886;SDS011;6511;49.746;6.094;2022-10-26T06:03:40;27.73;;;13.82;;
12886;SDS011;6511;49.746;6.094;2022-10-26T06:06:12;27.75;;;13.90;;
12886;SDS011;6511;49.746;6.094;2022-10-26T06:08:37;22.00;;;13.45;;
12886;SDS011;6511;49.746;6.094;2022-10-26T06:11:03;36.53;;;15.15;;
12886;SDS011;6511;49.746;6.094;2022-10-26T06:13:31;26.35;;;15.50;;
12886;SDS011;6511;49.746;6.094;2022-10-26T06:21:29;28.13;;;13.82;;
12886;SDS011;6511;49.746;6.094;2022-10-26T06:30:05;23.90;;;12.20;;
12886;SDS011;6511;49.746;6.094;2022-10-26T06:32:39;23.45;;;12.70;;
12886;SDS011;6511;49.746;6.094;2022-10-26T06:37:57;27.42;;;14.90;;
12886;SDS011;6511;49.746;6.094;2022-10-26T06:40:27;33.88;;;14.73;;
12886;SDS011;6511;49.746;6.094;2022-10-26T06:42:57;22.83;;;14.60;;
12886;SDS011;6511;49.746;6.094;2022-10-26T06:45:24;26.88;;;14.15;;
12886;SDS011;6511;49.746;6.094;2022-10-26T06:47:57;27.90;;;13.50;;
12886;SDS011;6511;49.746;6.094;2022-10-26T06:55:41;24.17;;;13.20;;
12886;SDS011;6511;49.746;6.094;2022-10-26T06:58:15;23.13;;;14.13;;
12886;SDS011;6511;49.746;6.094;2022-10-26T07:00:43;25.10;;;13.75;;
12886;SDS011;6511;49.746;6.094;2022-10-26T07:03:11;24.45;;;13.80;;
12886;SDS011;6511;49.746;6.094;2022-10-26T07:05:37;28.00;;;17.15;;
12886;SDS011;6511;49.746;6.094;2022-10-26T07:08:03;27.00;;;13.75;;
12886;SDS011;6511;49.746;6.094;2022-10-26T07:10:29;26.10;;;13.27;;
12886;SDS011;6511;49.746;6.094;2022-10-26T07:12:55;24.90;;;12.82;;
12886;SDS011;6511;49.746;6.094;2022-10-26T07:15:20;22.73;;;13.57;;
12886;SDS011;6511;49.746;6.094;2022-10-26T07:17:47;22.63;;;14.60;;
12886;SDS011;6511;49.746;6.094;2022-10-26T07:20:14;23.13;;;14.30;;
12886;SDS011;6511;49.746;6.094;2022-10-26T07:22:40;19.67;;;12.60;;
12886;SDS011;6511;49.746;6.094;2022-10-26T07:25:07;21.17;;;13.27;;
12886;SDS011;6511;49.746;6.094;2022-10-26T07:27:33;17.60;;;11.75;;
12886;SDS011;6511;49.746;6.094;2022-10-26T07:29:59;19.60;;;11.73;;
12886;SDS011;6511;49.746;6.094;2022-10-26T07:32:24;17.23;;;11.02;;
12886;SDS011;6511;49.746;6.094;2022-10-26T07:34:50;21.77;;;11.10;;
12886;SDS011;6511;49.746;6.094;2022-10-26T07:37:16;19.77;;;10.52;;
12886;SDS011;6511;49.746;6.094;2022-10-26T07:39:41;18.17;;;10.02;;
12886;SDS011;6511;49.746;6.094;2022-10-26T07:42:07;18.85;;;11.50;;
12886;SDS011;6511;49.746;6.094;2022-10-26T07:44:33;17.52;;;11.02;;
12886;SDS011;6511;49.746;6.094;2022-10-26T07:46:59;17.63;;;11.32;;
12886;SDS011;6511;49.746;6.094;2022-10-26T07:49:25;15.48;;;10.65;;
12886;SDS011;6511;49.746;6.094;2022-10-26T07:51:50;22.02;;;11.20;;
12886;SDS011;6511;49.746;6.094;2022-10-26T07:54:16;22.02;;;10.75;;
12886;SDS011;6511;49.746;6.094;2022-10-26T07:56:42;22.27;;;11.68;;
12886;SDS011;6511;49.746;6.094;2022-10-26T07:59:09;17.77;;;11.65;;
12886;SDS011;6511;49.746;6.094;2022-10-26T08:01:35;19.90;;;11.15;;
12886;SDS011;6511;49.746;6.094;2022-10-26T08:04:01;20.30;;;10.70;;
12886;SDS011;6511;49.746;6.094;2022-10-26T08:06:27;16.30;;;10.38;;
12886;SDS011;6511;49.746;6.094;2022-10-26T08:08:52;15.75;;;12.20;;
12886;SDS011;6511;49.746;6.094;2022-10-26T08:11:21;20.42;;;11.18;;
12886;SDS011;6511;49.746;6.094;2022-10-26T08:13:47;17.65;;;10.63;;
12886;SDS011;6511;49.746;6.094;2022-10-26T08:16:16;14.85;;;9.40;;
12886;SDS011;6511;49.746;6.094;2022-10-26T08:18:42;21.05;;;9.30;;
12886;SDS011;6511;49.746;6.094;2022-10-26T08:21:11;16.95;;;8.73;;
12886;SDS011;6511;49.746;6.094;2022-10-26T08:23:37;19.63;;;8.40;;
12886;SDS011;6511;49.746;6.094;2022-10-26T08:26:03;16.50;;;8.38;;
12886;SDS011;6511;49.746;6.094;2022-10-26T08:28:29;13.98;;;7.40;;
12886;SDS011;6511;49.746;6.094;2022-10-26T08:30:55;11.43;;;6.43;;
12886;SDS011;6511;49.746;6.094;2022-10-26T08:33:21;14.35;;;6.32;;
12886;SDS011;6511;49.746;6.094;2022-10-26T08:35:48;15.13;;;6.93;;
12886;SDS011;6511;49.746;6.094;2022-10-26T08:38:22;13.02;;;5.80;;
12886;SDS011;6511;49.746;6.094;2022-10-26T08:40:48;11.38;;;5.35;;
12886;SDS011;6511;49.746;6.094;2022-10-26T08:43:23;11.82;;;5.35;;
12886;SDS011;6511;49.746;6.094;2022-10-26T08:46:04;10.23;;;4.80;;
12886;SDS011;6511;49.746;6.094;2022-10-26T08:48:36;8.32;;;4.53;;
12886;SDS011;6511;49.746;6.094;2022-10-26T08:51:09;9.45;;;4.63;;
12886;SDS011;6511;49.746;6.094;2022-10-26T08:56:21;8.85;;;3.75;;
12886;SDS011;6511;49.746;6.094;2022-10-26T09:01:54;7.68;;;2.72;;
12886;SDS011;6511;49.746;6.094;2022-10-26T09:04:25;7.35;;;2.92;;
12886;SDS011;6511;49.746;6.094;2022-10-26T09:07:06;5.97;;;2.80;;
12886;SDS011;6511;49.746;6.094;2022-10-26T09:23:37;6.47;;;2.88;;
12886;SDS011;6511;49.746;6.094;2022-10-26T09:26:04;4.72;;;2.65;;
12886;SDS011;6511;49.746;6.094;2022-10-26T09:28:38;6.68;;;2.65;;
12886;SDS011;6511;49.746;6.094;2022-10-26T09:31:08;4.38;;;2.40;;
12886;SDS011;6511;49.746;6.094;2022-10-26T09:33:39;6.07;;;2.45;;
12886;SDS011;6511;49.746;6.094;2022-10-26T09:36:06;5.18;;;2.67;;
12886;SDS011;6511;49.746;6.094;2022-10-26T09:38:43;6.40;;;2.33;;
12886;SDS011;6511;49.746;6.094;2022-10-26T09:41:24;3.97;;;2.03;;
12886;SDS011;6511;49.746;6.094;2022-10-26T09:47:27;4.35;;;2.53;;
12886;SDS011;6511;49.746;6.094;2022-10-26T09:49:55;6.63;;;2.67;;
12886;SDS011;6511;49.746;6.094;2022-10-26T09:52:26;6.15;;;2.45;;
12886;SDS011;6511;49.746;6.094;2022-10-26T09:54:52;5.18;;;2.65;;
12886;SDS011;6511;49.746;6.094;2022-10-26T09:57:18;7.15;;;2.42;;
12886;SDS011;6511;49.746;6.094;2022-10-26T09:59:45;4.90;;;2.67;;
12886;SDS011;6511;49.746;6.094;2022-10-26T10:04:56;4.90;;;2.33;;
12886;SDS011;6511;49.746;6.094;2022-10-26T10:07:22;6.63;;;2.30;;
12886;SDS011;6511;49.746;6.094;2022-10-26T10:10:07;8.23;;;2.25;;
12886;SDS011;6511;49.746;6.094;2022-10-26T10:12:45;6.28;;;2.40;;
12886;SDS011;6511;49.746;6.094;2022-10-26T10:15:21;5.03;;;2.10;;
12886;SDS011;6511;49.746;6.094;2022-10-26T10:17:52;3.95;;;2.30;;
12886;SDS011;6511;49.746;6.094;2022-10-26T10:20:31;4.95;;;2.30;;
12886;SDS011;6511;49.746;6.094;2022-10-26T10:23:01;4.53;;;2.00;;
12886;SDS011;6511;49.746;6.094;2022-10-26T10:27:59;4.70;;;1.88;;
12886;SDS011;6511;49.746;6.094;2022-10-26T10:30:30;3.90;;;1.73;;
12886;SDS011;6511;49.746;6.094;2022-10-26T10:33:09;7.35;;;2.00;;
12886;SDS011;6511;49.746;6.094;2022-10-26T10:35:36;6.40;;;2.17;;
12886;SDS011;6511;49.746;6.094;2022-10-26T10:38:15;5.90;;;2.10;;
12886;SDS011;6511;49.746;6.094;2022-10-26T10:40:49;2.90;;;1.63;;
12886;SDS011;6511;49.746;6.094;2022-10-26T10:43:17;5.63;;;2.08;;
12886;SDS011;6511;49.746;6.094;2022-10-26T10:45:47;4.72;;;1.90;;
12886;SDS011;6511;49.746;6.094;2022-10-26T10:53:33;6.93;;;1.90;;
12886;SDS011;6511;49.746;6.094;2022-10-26T10:56:12;7.53;;;2.22;;
12886;SDS011;6511;49.746;6.094;2022-10-26T10:59:02;7.25;;;1.90;;
12886;SDS011;6511;49.746;6.094;2022-10-26T11:02:15;5.70;;;1.83;;
12886;SDS011;6511;49.746;6.094;2022-10-26T11:07:34;4.32;;;1.63;;
12886;SDS011;6511;49.746;6.094;2022-10-26T11:10:10;3.45;;;1.30;;
12886;SDS011;6511;49.746;6.094;2022-10-26T11:13:14;4.95;;;1.60;;
12886;SDS011;6511;49.746;6.094;2022-10-26T11:15:45;6.07;;;1.95;;
12886;SDS011;6511;49.746;6.094;2022-10-26T11:18:16;8.13;;;1.73;;
12886;SDS011;6511;49.746;6.094;2022-10-26T11:21:02;5.10;;;1.63;;
12886;SDS011;6511;49.746;6.094;2022-10-26T11:23:40;4.03;;;1.70;;
12886;SDS011;6511;49.746;6.094;2022-10-26T11:26:20;4.80;;;1.90;;
12886;SDS011;6511;49.746;6.094;2022-10-26T11:28:55;6.55;;;2.13;;
12886;SDS011;6511;49.746;6.094;2022-10-26T11:31:29;5.25;;;1.70;;
12886;SDS011;6511;49.746;6.094;2022-10-26T11:34:47;5.10;;;1.60;;
12886;SDS011;6511;49.746;6.094;2022-10-26T11:36:57;2.60;;;1.30;;
12886;SDS011;6511;49.746;6.094;2022-10-26T11:42:49;7.07;;;1.40;;
12886;SDS011;6511;49.746;6.094;2022-10-26T11:50:44;8.95;;;2.53;;
12886;SDS011;6511;49.746;6.094;2022-10-26T11:53:17;5.20;;;1.83;;
12886;SDS011;6511;49.746;6.094;2022-10-26T11:55:52;1.85;;;1.30;;
12886;SDS011;6511;49.746;6.094;2022-10-26T11:58:23;4.78;;;2.33;;
12886;SDS011;6511;49.746;6.094;2022-10-26T12:01:01;6.57;;;2.10;;
12886;SDS011;6511;49.746;6.094;2022-10-26T12:03:33;4.28;;;1.80;;
12886;SDS011;6511;49.746;6.094;2022-10-26T12:06:07;8.40;;;2.67;;
12886;SDS011;6511;49.746;6.094;2022-10-26T12:08:45;5.40;;;2.10;;
12886;SDS011;6511;49.746;6.094;2022-10-26T12:11:30;5.32;;;1.50;;
12886;SDS011;6511;49.746;6.094;2022-10-26T12:16:56;4.13;;;1.90;;
12886;SDS011;6511;49.746;6.094;2022-10-26T12:22:13;4.60;;;1.45;;
12886;SDS011;6511;49.746;6.094;2022-10-26T12:24:43;3.13;;;1.35;;
12886;SDS011;6511;49.746;6.094;2022-10-26T12:37:54;5.97;;;1.52;;
12886;SDS011;6511;49.746;6.094;2022-10-26T12:45:40;1.73;;;1.40;;
12886;SDS011;6511;49.746;6.094;2022-10-26T12:50:49;4.90;;;1.20;;
12886;SDS011;6511;49.746;6.094;2022-10-26T12:53:16;3.97;;;1.17;;
12886;SDS011;6511;49.746;6.094;2022-10-26T13:01:06;2.45;;;1.15;;
12886;SDS011;6511;49.746;6.094;2022-10-26T13:06:53;1.38;;;1.00;;
12886;SDS011;6511;49.746;6.094;2022-10-26T13:09:24;4.03;;;1.38;;
12886;SDS011;6511;49.746;6.094;2022-10-26T13:11:54;1.80;;;1.30;;
12886;SDS011;6511;49.746;6.094;2022-10-26T13:16:49;6.47;;;1.85;;
12886;SDS011;6511;49.746;6.094;2022-10-26T13:22:20;3.42;;;1.10;;
12886;SDS011;6511;49.746;6.094;2022-10-26T13:24:53;2.17;;;1.15;;
12886;SDS011;6511;49.746;6.094;2022-10-26T13:30:20;2.35;;;0.90;;
12886;SDS011;6511;49.746;6.094;2022-10-26T13:32:55;4.30;;;1.20;;
12886;SDS011;6511;49.746;6.094;2022-10-26T13:35:22;3.08;;;1.08;;
12886;SDS011;6511;49.746;6.094;2022-10-26T13:37:49;3.78;;;1.17;;
12886;SDS011;6511;49.746;6.094;2022-10-26T13:40:18;2.33;;;1.13;;
12886;SDS011;6511;49.746;6.094;2022-10-26T13:42:51;3.90;;;1.20;;
12886;SDS011;6511;49.746;6.094;2022-10-26T13:45:26;3.60;;;1.20;;
12886;SDS011;6511;49.746;6.094;2022-10-26T13:48:09;3.25;;;1.20;;
12886;SDS011;6511;49.746;6.094;2022-10-26T13:53:21;3.58;;;1.15;;
12886;SDS011;6511;49.746;6.094;2022-10-26T13:56:29;2.40;;;1.02;;
12886;SDS011;6511;49.746;6.094;2022-10-26T13:59:08;6.45;;;1.38;;
12886;SDS011;6511;49.746;6.094;2022-10-26T14:01:36;1.40;;;0.90;;
12886;SDS011;6511;49.746;6.094;2022-10-26T14:04:14;2.35;;;1.00;;
12886;SDS011;6511;49.746;6.094;2022-10-26T14:06:42;2.88;;;1.02;;
12886;SDS011;6511;49.746;6.094;2022-10-26T14:09:14;1.30;;;1.00;;
12886;SDS011;6511;49.746;6.094;2022-10-26T14:11:51;3.90;;;1.38;;
12886;SDS011;6511;49.746;6.094;2022-10-26T14:14:31;3.92;;;0.90;;
12886;SDS011;6511;49.746;6.094;2022-10-26T14:17:01;3.40;;;1.17;;
12886;SDS011;6511;49.746;6.094;2022-10-26T14:19:28;4.05;;;1.20;;
12886;SDS011;6511;49.746;6.094;2022-10-26T14:21:59;2.67;;;1.17;;
12886;SDS011;6511;49.746;6.094;2022-10-26T14:24:27;2.22;;;1.10;;
12886;SDS011;6511;49.746;6.094;2022-10-26T14:26:53;2.42;;;1.00;;
12886;SDS011;6511;49.746;6.094;2022-10-26T14:29:20;1.50;;;0.80;;
12886;SDS011;6511;49.746;6.094;2022-10-26T14:31:48;5.95;;;1.10;;
12886;SDS011;6511;49.746;6.094;2022-10-26T14:34:15;4.57;;;1.50;;
12886;SDS011;6511;49.746;6.094;2022-10-26T14:36:46;2.80;;;1.08;;
12886;SDS011;6511;49.746;6.094;2022-10-26T14:39:30;2.97;;;0.98;;
12886;SDS011;6511;49.746;6.094;2022-10-26T14:41:58;3.67;;;1.10;;
12886;SDS011;6511;49.746;6.094;2022-10-26T14:44:25;3.80;;;1.08;;
12886;SDS011;6511;49.746;6.094;2022-10-26T14:46:53;3.25;;;1.00;;
12886;SDS011;6511;49.746;6.094;2022-10-26T14:49:23;4.05;;;1.10;;
12886;SDS011;6511;49.746;6.094;2022-10-26T14:51:55;2.92;;;1.17;;
12886;SDS011;6511;49.746;6.094;2022-10-26T14:54:24;3.45;;;1.17;;
12886;SDS011;6511;49.746;6.094;2022-10-26T14:56:51;4.70;;;1.20;;
12886;SDS011;6511;49.746;6.094;2022-10-26T14:59:28;3.97;;;1.05;;
12886;SDS011;6511;49.746;6.094;2022-10-26T15:07:17;3.88;;;1.13;;
12886;SDS011;6511;49.746;6.094;2022-10-26T15:09:45;1.75;;;1.00;;
12886;SDS011;6511;49.746;6.094;2022-10-26T15:17:39;2.88;;;1.08;;
12886;SDS011;6511;49.746;6.094;2022-10-26T15:20:10;4.25;;;1.30;;
12886;SDS011;6511;49.746;6.094;2022-10-26T15:22:56;4.63;;;1.20;;
12886;SDS011;6511;49.746;6.094;2022-10-26T15:25:25;2.20;;;1.13;;
12886;SDS011;6511;49.746;6.094;2022-10-26T15:27:53;4.88;;;1.20;;
12886;SDS011;6511;49.746;6.094;2022-10-26T15:30:20;2.85;;;1.45;;
12886;SDS011;6511;49.746;6.094;2022-10-26T15:32:52;4.50;;;1.20;;
12886;SDS011;6511;49.746;6.094;2022-10-26T15:37:48;2.92;;;1.35;;
12886;SDS011;6511;49.746;6.094;2022-10-26T15:40:16;2.33;;;1.23;;
12886;SDS011;6511;49.746;6.094;2022-10-26T15:42:42;3.08;;;1.50;;
12886;SDS011;6511;49.746;6.094;2022-10-26T15:45:17;6.78;;;1.67;;
12886;SDS011;6511;49.746;6.094;2022-10-26T15:47:47;3.95;;;1.48;;
12886;SDS011;6511;49.746;6.094;2022-10-26T15:50:16;4.03;;;1.55;;
12886;SDS011;6511;49.746;6.094;2022-10-26T15:52:47;6.65;;;1.50;;
12886;SDS011;6511;49.746;6.094;2022-10-26T15:55:13;3.72;;;1.50;;
12886;SDS011;6511;49.746;6.094;2022-10-26T15:57:39;2.95;;;1.88;;
12886;SDS011;6511;49.746;6.094;2022-10-26T16:00:05;4.25;;;2.85;;
12886;SDS011;6511;49.746;6.094;2022-10-26T16:02:32;6.53;;;3.38;;
12886;SDS011;6511;49.746;6.094;2022-10-26T16:05:00;5.30;;;2.10;;
12886;SDS011;6511;49.746;6.094;2022-10-26T16:07:29;4.32;;;1.98;;
12886;SDS011;6511;49.746;6.094;2022-10-26T16:09:54;3.50;;;1.77;;
12886;SDS011;6511;49.746;6.094;2022-10-26T16:12:20;6.13;;;2.03;;
12886;SDS011;6511;49.746;6.094;2022-10-26T16:14:46;2.30;;;1.63;;
12886;SDS011;6511;49.746;6.094;2022-10-26T16:17:15;3.78;;;2.08;;
12886;SDS011;6511;49.746;6.094;2022-10-26T16:19:40;6.53;;;2.03;;
12886;SDS011;6511;49.746;6.094;2022-10-26T16:22:06;5.13;;;2.08;;
12886;SDS011;6511;49.746;6.094;2022-10-26T16:24:33;3.85;;;2.13;;
12886;SDS011;6511;49.746;6.094;2022-10-26T16:26:59;4.95;;;2.25;;
12886;SDS011;6511;49.746;6.094;2022-10-26T16:29:25;6.40;;;2.22;;
12886;SDS011;6511;49.746;6.094;2022-10-26T16:31:50;5.95;;;2.50;;
12886;SDS011;6511;49.746;6.094;2022-10-26T16:34:16;37.95;;;26.70;;
12886;SDS011;6511;49.746;6.094;2022-10-26T16:36:42;9.93;;;5.88;;
12886;SDS011;6511;49.746;6.094;2022-10-26T16:39:09;8.43;;;3.20;;
12886;SDS011;6511;49.746;6.094;2022-10-26T16:41:35;6.38;;;3.05;;
12886;SDS011;6511;49.746;6.094;2022-10-26T16:44:01;6.28;;;3.05;;
12886;SDS011;6511;49.746;6.094;2022-10-26T16:46:27;8.68;;;3.25;;
12886;SDS011;6511;49.746;6.094;2022-10-26T16:48:52;8.90;;;4.03;;
12886;SDS011;6511;49.746;6.094;2022-10-26T16:51:22;8.07;;;3.65;;
12886;SDS011;6511;49.746;6.094;2022-10-26T16:53:51;7.93;;;4.43;;
12886;SDS011;6511;49.746;6.094;2022-10-26T16:56:19;6.57;;;3.67;;
12886;SDS011;6511;49.746;6.094;2022-10-26T16:58:47;7.55;;;4.00;;
12886;SDS011;6511;49.746;6.094;2022-10-26T17:01:13;10.27;;;4.15;;
12886;SDS011;6511;49.746;6.094;2022-10-26T17:03:42;8.93;;;3.83;;
12886;SDS011;6511;49.746;6.094;2022-10-26T17:06:09;9.07;;;3.40;;
12886;SDS011;6511;49.746;6.094;2022-10-26T17:08:35;9.10;;;2.90;;
12886;SDS011;6511;49.746;6.094;2022-10-26T17:11:22;11.40;;;3.35;;
12886;SDS011;6511;49.746;6.094;2022-10-26T17:13:47;7.22;;;2.83;;
12886;SDS011;6511;49.746;6.094;2022-10-26T17:16:18;7.55;;;3.15;;
12886;SDS011;6511;49.746;6.094;2022-10-26T17:18:45;8.00;;;3.38;;
12886;SDS011;6511;49.746;6.094;2022-10-26T17:21:12;8.80;;;3.60;;
12886;SDS011;6511;49.746;6.094;2022-10-26T17:23:39;8.00;;;3.28;;
12886;SDS011;6511;49.746;6.094;2022-10-26T17:26:06;13.63;;;4.13;;
12886;SDS011;6511;49.746;6.094;2022-10-26T17:28:33;11.18;;;3.85;;
12886;SDS011;6511;49.746;6.094;2022-10-26T17:31:03;6.38;;;3.65;;
12886;SDS011;6511;49.746;6.094;2022-10-26T17:33:43;10.95;;;4.10;;
12886;SDS011;6511;49.746;6.094;2022-10-26T17:36:14;13.20;;;4.32;;